CPH weather

Copenhagen Kastrup Airport
Copenhagen, Capital Region, Denmark

Public forecast

Using degrees Celsius for public forecast. Weather courtesy of forecast.io.

METAR (pilot weather report)

Retrieved 2019/02/18 15:50 UTC (11 minutes ago):

EKCH 181550Z AUTO 19005KT 7000NDV NCD 06/04 Q1015 NOSIG

TAF (pilot weather forecast)

Retrieved 2019/02/18 12:00 UTC (4 hours ago):

TAF EKCH 181111Z 1812/1912 18008KT 7000 NSC TEMPO 1820/1912 4000 -RADZ BR BKN008 BECMG 1908/1910 24015KT